sensor_id;sensor_type;location;lat;lon;timestamp;temperature;humidity
23534;DHT22;11944;50.796;4.322;2022-10-16T00:01:29;14.30;99.90
23534;DHT22;11944;50.796;4.322;2022-10-16T00:03:58;14.20;99.90
23534;DHT22;11944;50.796;4.322;2022-10-16T00:06:27;14.20;99.90
23534;DHT22;11944;50.796;4.322;2022-10-16T00:08:55;14.20;99.90
23534;DHT22;11944;50.796;4.322;2022-10-16T00:11:26;14.20;99.90
23534;DHT22;11944;50.796;4.322;2022-10-16T00:13:58;14.20;99.90
23534;DHT22;11944;50.796;4.322;2022-10-16T00:16:27;14.20;99.90
23534;DHT22;11944;50.796;4.322;2022-10-16T00:18:55;14.20;99.90
23534;DHT22;11944;50.796;4.322;2022-10-16T00:21:25;14.10;99.90
23534;DHT22;11944;50.796;4.322;2022-10-16T00:23:59;14.10;99.90
23534;DHT22;11944;50.796;4.322;2022-10-16T00:26:27;14.20;99.90
23534;DHT22;11944;50.796;4.322;2022-10-16T00:28:55;14.10;99.90
23534;DHT22;11944;50.796;4.322;2022-10-16T00:31:23;14.10;99.90
23534;DHT22;11944;50.796;4.322;2022-10-16T00:33:51;14.20;99.90
23534;DHT22;11944;50.796;4.322;2022-10-16T00:36:21;14.10;99.90
23534;DHT22;11944;50.796;4.322;2022-10-16T00:38:58;14.20;99.90
23534;DHT22;11944;50.796;4.322;2022-10-16T00:41:24;14.10;99.90
23534;DHT22;11944;50.796;4.322;2022-10-16T00:43:58;14.10;99.90
23534;DHT22;11944;50.796;4.322;2022-10-16T00:46:23;14.10;99.90
23534;DHT22;11944;50.796;4.322;2022-10-16T00:48:57;14.00;99.90
23534;DHT22;11944;50.796;4.322;2022-10-16T00:51:24;14.00;99.90
23534;DHT22;11944;50.796;4.322;2022-10-16T00:53:52;14.00;99.90
23534;DHT22;11944;50.796;4.322;2022-10-16T00:56:19;14.00;99.90
23534;DHT22;11944;50.796;4.322;2022-10-16T00:58:47;14.00;99.90
23534;DHT22;11944;50.796;4.322;2022-10-16T01:01:14;14.00;99.90
23534;DHT22;11944;50.796;4.322;2022-10-16T01:03:42;14.00;99.90
23534;DHT22;11944;50.796;4.322;2022-10-16T01:11:31;14.00;99.90
23534;DHT22;11944;50.796;4.322;2022-10-16T01:13:59;14.00;99.90
23534;DHT22;11944;50.796;4.322;2022-10-16T01:16:38;14.00;99.90
23534;DHT22;11944;50.796;4.322;2022-10-16T01:20:13;13.90;99.90
23534;DHT22;11944;50.796;4.322;2022-10-16T01:21:50;13.90;99.90
23534;DHT22;11944;50.796;4.322;2022-10-16T01:24:35;13.90;99.90
23534;DHT22;11944;50.796;4.322;2022-10-16T01:27:25;13.90;99.90
23534;DHT22;11944;50.796;4.322;2022-10-16T01:30:12;13.80;99.90
23534;DHT22;11944;50.796;4.322;2022-10-16T01:32:42;13.90;99.90
23534;DHT22;11944;50.796;4.322;2022-10-16T01:35:14;13.90;99.90
23534;DHT22;11944;50.796;4.322;2022-10-16T01:37:53;13.90;99.90
23534;DHT22;11944;50.796;4.322;2022-10-16T01:40:18;13.90;99.90
23534;DHT22;11944;50.796;4.322;2022-10-16T01:42:47;13.90;99.90
23534;DHT22;11944;50.796;4.322;2022-10-16T01:45:16;13.90;99.90
23534;DHT22;11944;50.796;4.322;2022-10-16T01:47:47;13.90;99.90
23534;DHT22;11944;50.796;4.322;2022-10-16T01:50:16;13.90;99.90
23534;DHT22;11944;50.796;4.322;2022-10-16T01:52:48;13.90;99.90
23534;DHT22;11944;50.796;4.322;2022-10-16T01:55:19;13.90;99.90
23534;DHT22;11944;50.796;4.322;2022-10-16T01:57:48;13.90;99.90
23534;DHT22;11944;50.796;4.322;2022-10-16T02:00:18;13.90;99.90
23534;DHT22;11944;50.796;4.322;2022-10-16T02:02:49;13.90;99.90
23534;DHT22;11944;50.796;4.322;2022-10-16T02:08:07;13.80;99.90
23534;DHT22;11944;50.796;4.322;2022-10-16T02:10:36;13.80;99.90
23534;DHT22;11944;50.796;4.322;2022-10-16T02:13:07;13.80;99.90
23534;DHT22;11944;50.796;4.322;2022-10-16T02:15:35;13.80;99.90
23534;DHT22;11944;50.796;4.322;2022-10-16T02:18:05;13.80;99.90
23534;DHT22;11944;50.796;4.322;2022-10-16T02:20:40;13.80;99.90
23534;DHT22;11944;50.796;4.322;2022-10-16T02:23:04;13.80;99.90
23534;DHT22;11944;50.796;4.322;2022-10-16T02:25:34;13.80;99.90
23534;DHT22;11944;50.796;4.322;2022-10-16T02:28:31;13.80;99.90
23534;DHT22;11944;50.796;4.322;2022-10-16T02:31:05;13.80;99.90
23534;DHT22;11944;50.796;4.322;2022-10-16T02:33:34;13.70;99.90
23534;DHT22;11944;50.796;4.322;2022-10-16T02:36:03;13.70;99.90
23534;DHT22;11944;50.796;4.322;2022-10-16T02:38:30;13.70;99.90
23534;DHT22;11944;50.796;4.322;2022-10-16T02:40:58;13.70;99.90
23534;DHT22;11944;50.796;4.322;2022-10-16T02:43:26;13.70;99.90
23534;DHT22;11944;50.796;4.322;2022-10-16T02:45:53;13.70;99.90
23534;DHT22;11944;50.796;4.322;2022-10-16T02:48:21;13.70;99.90
23534;DHT22;11944;50.796;4.322;2022-10-16T02:50:49;13.80;99.90
23534;DHT22;11944;50.796;4.322;2022-10-16T02:53:17;13.80;99.90
23534;DHT22;11944;50.796;4.322;2022-10-16T02:55:45;13.80;99.90
23534;DHT22;11944;50.796;4.322;2022-10-16T02:58:12;13.80;99.90
23534;DHT22;11944;50.796;4.322;2022-10-16T03:00:40;13.70;99.90
23534;DHT22;11944;50.796;4.322;2022-10-16T03:03:07;13.70;99.90
23534;DHT22;11944;50.796;4.322;2022-10-16T03:05:35;13.70;99.90
23534;DHT22;11944;50.796;4.322;2022-10-16T03:08:02;13.70;99.90
23534;DHT22;11944;50.796;4.322;2022-10-16T03:10:30;13.70;99.90
23534;DHT22;11944;50.796;4.322;2022-10-16T03:12:57;13.80;99.90
23534;DHT22;11944;50.796;4.322;2022-10-16T03:15:25;13.80;99.90
23534;DHT22;11944;50.796;4.322;2022-10-16T03:17:54;13.80;99.90
23534;DHT22;11944;50.796;4.322;2022-10-16T03:20:23;13.80;99.90
23534;DHT22;11944;50.796;4.322;2022-10-16T03:22:51;13.80;99.90
23534;DHT22;11944;50.796;4.322;2022-10-16T03:25:18;13.80;99.90
23534;DHT22;11944;50.796;4.322;2022-10-16T03:27:46;13.90;99.90
23534;DHT22;11944;50.796;4.322;2022-10-16T03:30:13;13.80;99.90
23534;DHT22;11944;50.796;4.322;2022-10-16T03:32:43;13.80;99.90
23534;DHT22;11944;50.796;4.322;2022-10-16T03:35:11;13.80;99.90
23534;DHT22;11944;50.796;4.322;2022-10-16T03:37:38;13.80;99.90
23534;DHT22;11944;50.796;4.322;2022-10-16T03:40:06;13.80;99.90
23534;DHT22;11944;50.796;4.322;2022-10-16T03:42:34;13.80;99.90
23534;DHT22;11944;50.796;4.322;2022-10-16T03:45:02;13.80;99.90
23534;DHT22;11944;50.796;4.322;2022-10-16T03:47:29;13.80;99.90
23534;DHT22;11944;50.796;4.322;2022-10-16T03:49:59;13.80;99.90
23534;DHT22;11944;50.796;4.322;2022-10-16T03:52:27;13.80;99.90
23534;DHT22;11944;50.796;4.322;2022-10-16T03:54:54;13.70;99.90
23534;DHT22;11944;50.796;4.322;2022-10-16T03:57:22;13.80;99.90
23534;DHT22;11944;50.796;4.322;2022-10-16T03:59:49;13.70;99.90
23534;DHT22;11944;50.796;4.322;2022-10-16T04:02:17;13.70;99.90
23534;DHT22;11944;50.796;4.322;2022-10-16T04:04:44;13.70;99.90
23534;DHT22;11944;50.796;4.322;2022-10-16T04:07:12;13.70;99.90
23534;DHT22;11944;50.796;4.322;2022-10-16T04:09:39;13.70;99.90
23534;DHT22;11944;50.796;4.322;2022-10-16T04:12:07;13.70;99.90
23534;DHT22;11944;50.796;4.322;2022-10-16T04:14:34;13.70;99.90
23534;DHT22;11944;50.796;4.322;2022-10-16T04:17:02;13.60;99.90
23534;DHT22;11944;50.796;4.322;2022-10-16T04:19:29;13.60;99.90
23534;DHT22;11944;50.796;4.322;2022-10-16T04:21:57;13.70;99.90
23534;DHT22;11944;50.796;4.322;2022-10-16T04:24:24;13.70;99.90
23534;DHT22;11944;50.796;4.322;2022-10-16T04:26:52;13.70;99.90
23534;DHT22;11944;50.796;4.322;2022-10-16T04:29:19;13.60;99.90
23534;DHT22;11944;50.796;4.322;2022-10-16T04:31:47;13.70;99.90
23534;DHT22;11944;50.796;4.322;2022-10-16T04:34:14;13.70;99.90
23534;DHT22;11944;50.796;4.322;2022-10-16T04:36:42;13.70;99.90
23534;DHT22;11944;50.796;4.322;2022-10-16T04:39:09;13.60;99.90
23534;DHT22;11944;50.796;4.322;2022-10-16T04:41:37;13.70;99.90
23534;DHT22;11944;50.796;4.322;2022-10-16T04:44:05;13.60;99.90
23534;DHT22;11944;50.796;4.322;2022-10-16T04:46:32;13.60;99.90
23534;DHT22;11944;50.796;4.322;2022-10-16T04:49:00;13.60;99.90
23534;DHT22;11944;50.796;4.322;2022-10-16T04:51:27;13.60;99.90
23534;DHT22;11944;50.796;4.322;2022-10-16T04:53:58;13.60;99.90
23534;DHT22;11944;50.796;4.322;2022-10-16T04:56:28;13.60;99.90
23534;DHT22;11944;50.796;4.322;2022-10-16T04:58:55;13.60;99.90
23534;DHT22;11944;50.796;4.322;2022-10-16T05:01:23;13.60;99.90
23534;DHT22;11944;50.796;4.322;2022-10-16T05:03:50;13.50;99.90
23534;DHT22;11944;50.796;4.322;2022-10-16T05:06:18;13.50;99.90
23534;DHT22;11944;50.796;4.322;2022-10-16T05:08:45;13.50;99.90
23534;DHT22;11944;50.796;4.322;2022-10-16T05:11:13;13.50;99.90
23534;DHT22;11944;50.796;4.322;2022-10-16T05:13:40;13.50;99.90
23534;DHT22;11944;50.796;4.322;2022-10-16T05:16:08;13.60;99.90
23534;DHT22;11944;50.796;4.322;2022-10-16T05:18:35;13.50;99.90
23534;DHT22;11944;50.796;4.322;2022-10-16T05:21:03;13.50;99.90
23534;DHT22;11944;50.796;4.322;2022-10-16T05:23:31;13.50;99.90
23534;DHT22;11944;50.796;4.322;2022-10-16T05:26:00;13.50;99.90
23534;DHT22;11944;50.796;4.322;2022-10-16T05:28:28;13.50;99.90
23534;DHT22;11944;50.796;4.322;2022-10-16T05:30:57;13.60;99.90
23534;DHT22;11944;50.796;4.322;2022-10-16T05:33:26;13.50;99.90
23534;DHT22;11944;50.796;4.322;2022-10-16T05:35:53;13.50;99.90
23534;DHT22;11944;50.796;4.322;2022-10-16T05:38:30;13.50;99.90
23534;DHT22;11944;50.796;4.322;2022-10-16T05:40:57;13.50;99.90
23534;DHT22;11944;50.796;4.322;2022-10-16T05:43:26;13.50;99.90
23534;DHT22;11944;50.796;4.322;2022-10-16T05:45:56;13.40;99.90
23534;DHT22;11944;50.796;4.322;2022-10-16T05:48:23;13.50;99.90
23534;DHT22;11944;50.796;4.322;2022-10-16T05:51:07;13.40;99.90
23534;DHT22;11944;50.796;4.322;2022-10-16T05:53:34;13.50;99.90
23534;DHT22;11944;50.796;4.322;2022-10-16T05:56:02;13.50;99.90
23534;DHT22;11944;50.796;4.322;2022-10-16T05:58:32;13.50;99.90
23534;DHT22;11944;50.796;4.322;2022-10-16T06:01:14;13.40;99.90
23534;DHT22;11944;50.796;4.322;2022-10-16T06:03:38;13.40;99.90
23534;DHT22;11944;50.796;4.322;2022-10-16T06:06:13;13.40;99.90
23534;DHT22;11944;50.796;4.322;2022-10-16T06:08:42;13.40;99.90
23534;DHT22;11944;50.796;4.322;2022-10-16T06:11:17;13.50;99.90
23534;DHT22;11944;50.796;4.322;2022-10-16T06:13:44;13.50;99.90
23534;DHT22;11944;50.796;4.322;2022-10-16T06:16:13;13.50;99.90
23534;DHT22;11944;50.796;4.322;2022-10-16T06:18:40;13.50;99.90
23534;DHT22;11944;50.796;4.322;2022-10-16T06:21:19;13.40;99.90
23534;DHT22;11944;50.796;4.322;2022-10-16T06:23:47;13.40;99.90
23534;DHT22;11944;50.796;4.322;2022-10-16T06:26:17;13.40;99.90
23534;DHT22;11944;50.796;4.322;2022-10-16T06:28:45;13.50;99.90
23534;DHT22;11944;50.796;4.322;2022-10-16T06:31:14;13.50;99.90
23534;DHT22;11944;50.796;4.322;2022-10-16T06:33:43;13.50;99.90
23534;DHT22;11944;50.796;4.322;2022-10-16T06:36:14;13.50;99.90
23534;DHT22;11944;50.796;4.322;2022-10-16T06:38:43;13.60;99.90
23534;DHT22;11944;50.796;4.322;2022-10-16T06:41:16;13.70;99.90
23534;DHT22;11944;50.796;4.322;2022-10-16T06:43:44;13.80;99.90
23534;DHT22;11944;50.796;4.322;2022-10-16T06:46:14;13.80;99.90
23534;DHT22;11944;50.796;4.322;2022-10-16T06:48:42;13.80;99.90
23534;DHT22;11944;50.796;4.322;2022-10-16T06:51:11;14.00;99.90
23534;DHT22;11944;50.796;4.322;2022-10-16T06:53:46;14.10;99.90
23534;DHT22;11944;50.796;4.322;2022-10-16T06:56:10;14.20;99.90
23534;DHT22;11944;50.796;4.322;2022-10-16T06:58:38;14.40;99.90
23534;DHT22;11944;50.796;4.322;2022-10-16T07:01:06;14.50;99.90
23534;DHT22;11944;50.796;4.322;2022-10-16T07:03:36;14.60;99.90
23534;DHT22;11944;50.796;4.322;2022-10-16T07:06:06;14.80;99.90
23534;DHT22;11944;50.796;4.322;2022-10-16T07:08:35;15.10;99.90
23534;DHT22;11944;50.796;4.322;2022-10-16T07:11:05;15.30;99.90
23534;DHT22;11944;50.796;4.322;2022-10-16T07:13:40;15.30;99.90
23534;DHT22;11944;50.796;4.322;2022-10-16T07:16:08;15.10;99.90
23534;DHT22;11944;50.796;4.322;2022-10-16T07:18:36;15.10;99.90
23534;DHT22;11944;50.796;4.322;2022-10-16T07:21:07;15.00;99.90
23534;DHT22;11944;50.796;4.322;2022-10-16T07:23:35;15.00;99.90
23534;DHT22;11944;50.796;4.322;2022-10-16T07:26:04;15.10;99.90
23534;DHT22;11944;50.796;4.322;2022-10-16T07:28:36;15.10;99.90
23534;DHT22;11944;50.796;4.322;2022-10-16T07:31:11;15.40;99.90
23534;DHT22;11944;50.796;4.322;2022-10-16T07:33:35;16.00;99.90
23534;DHT22;11944;50.796;4.322;2022-10-16T07:36:02;16.70;99.90
23534;DHT22;11944;50.796;4.322;2022-10-16T07:38:30;17.00;99.90
23534;DHT22;11944;50.796;4.322;2022-10-16T07:41:04;17.00;99.90
23534;DHT22;11944;50.796;4.322;2022-10-16T07:43:27;16.60;99.90
23534;DHT22;11944;50.796;4.322;2022-10-16T07:45:56;16.40;99.90
23534;DHT22;11944;50.796;4.322;2022-10-16T07:48:27;16.00;99.90
23534;DHT22;11944;50.796;4.322;2022-10-16T07:50:56;15.80;99.90
23534;DHT22;11944;50.796;4.322;2022-10-16T07:53:22;15.50;99.90
23534;DHT22;11944;50.796;4.322;2022-10-16T07:55:49;15.90;99.90
23534;DHT22;11944;50.796;4.322;2022-10-16T07:58:17;16.00;99.90
23534;DHT22;11944;50.796;4.322;2022-10-16T08:00:44;16.30;99.90
23534;DHT22;11944;50.796;4.322;2022-10-16T08:03:12;16.40;99.90
23534;DHT22;11944;50.796;4.322;2022-10-16T08:05:39;16.40;99.90
23534;DHT22;11944;50.796;4.322;2022-10-16T08:08:10;16.30;99.90
23534;DHT22;11944;50.796;4.322;2022-10-16T08:10:36;16.30;99.90
23534;DHT22;11944;50.796;4.322;2022-10-16T08:13:03;16.50;99.90
23534;DHT22;11944;50.796;4.322;2022-10-16T08:15:31;16.50;99.90
23534;DHT22;11944;50.796;4.322;2022-10-16T08:18:01;16.60;99.90
23534;DHT22;11944;50.796;4.322;2022-10-16T08:20:30;16.30;99.90
23534;DHT22;11944;50.796;4.322;2022-10-16T08:22:59;16.40;99.90
23534;DHT22;11944;50.796;4.322;2022-10-16T08:25:27;16.80;99.90
23534;DHT22;11944;50.796;4.322;2022-10-16T08:27:55;16.90;99.90
23534;DHT22;11944;50.796;4.322;2022-10-16T08:30:23;17.60;99.90
23534;DHT22;11944;50.796;4.322;2022-10-16T08:32:51;17.90;99.90
23534;DHT22;11944;50.796;4.322;2022-10-16T08:35:19;17.90;99.90
23534;DHT22;11944;50.796;4.322;2022-10-16T08:37:46;18.30;99.90
23534;DHT22;11944;50.796;4.322;2022-10-16T08:40:29;20.50;99.90
23534;DHT22;11944;50.796;4.322;2022-10-16T08:43:09;21.80;99.90
23534;DHT22;11944;50.796;4.322;2022-10-16T08:45:41;22.20;99.90
23534;DHT22;11944;50.796;4.322;2022-10-16T08:48:22;22.40;99.90
23534;DHT22;11944;50.796;4.322;2022-10-16T08:50:51;22.20;99.90
23534;DHT22;11944;50.796;4.322;2022-10-16T08:53:37;22.30;99.90
23534;DHT22;11944;50.796;4.322;2022-10-16T08:56:05;22.20;99.90
23534;DHT22;11944;50.796;4.322;2022-10-16T08:58:32;24.40;99.90
23534;DHT22;11944;50.796;4.322;2022-10-16T09:01:12;24.60;99.90
23534;DHT22;11944;50.796;4.322;2022-10-16T09:04:07;23.90;99.90
23534;DHT22;11944;50.796;4.322;2022-10-16T09:09:38;23.30;99.90
23534;DHT22;11944;50.796;4.322;2022-10-16T09:12:55;24.80;99.90
23534;DHT22;11944;50.796;4.322;2022-10-16T09:15:14;25.40;99.90
23534;DHT22;11944;50.796;4.322;2022-10-16T09:18:06;24.60;99.90
23534;DHT22;11944;50.796;4.322;2022-10-16T09:20:43;25.50;99.90
23534;DHT22;11944;50.796;4.322;2022-10-16T09:23:18;26.00;99.90
23534;DHT22;11944;50.796;4.322;2022-10-16T09:25:47;26.50;99.90
23534;DHT22;11944;50.796;4.322;2022-10-16T09:28:17;24.90;99.90
23534;DHT22;11944;50.796;4.322;2022-10-16T09:30:46;23.50;99.90
23534;DHT22;11944;50.796;4.322;2022-10-16T09:33:24;23.40;99.90
23534;DHT22;11944;50.796;4.322;2022-10-16T09:35:54;23.90;99.90
23534;DHT22;11944;50.796;4.322;2022-10-16T09:40:57;22.40;99.90
23534;DHT22;11944;50.796;4.322;2022-10-16T09:43:34;21.50;99.90
23534;DHT22;11944;50.796;4.322;2022-10-16T09:46:04;21.30;99.90
23534;DHT22;11944;50.796;4.322;2022-10-16T09:48:39;20.00;99.90
23534;DHT22;11944;50.796;4.322;2022-10-16T09:51:17;19.60;99.90
23534;DHT22;11944;50.796;4.322;2022-10-16T09:53:45;19.30;99.90
23534;DHT22;11944;50.796;4.322;2022-10-16T09:56:21;19.20;99.90
23534;DHT22;11944;50.796;4.322;2022-10-16T09:58:52;19.00;99.90
23534;DHT22;11944;50.796;4.322;2022-10-16T10:01:20;18.90;99.90
23534;DHT22;11944;50.796;4.322;2022-10-16T10:03:48;18.60;99.90
23534;DHT22;11944;50.796;4.322;2022-10-16T10:06:24;18.40;99.90
23534;DHT22;11944;50.796;4.322;2022-10-16T10:09:04;18.30;99.90
23534;DHT22;11944;50.796;4.322;2022-10-16T10:11:39;18.40;99.90
23534;DHT22;11944;50.796;4.322;2022-10-16T10:14:23;18.30;99.90
23534;DHT22;11944;50.796;4.322;2022-10-16T10:16:47;18.40;99.90
23534;DHT22;11944;50.796;4.322;2022-10-16T10:19:22;18.50;99.90
23534;DHT22;11944;50.796;4.322;2022-10-16T10:21:46;18.60;99.90
23534;DHT22;11944;50.796;4.322;2022-10-16T10:24:15;19.00;99.90
23534;DHT22;11944;50.796;4.322;2022-10-16T10:26:57;19.10;99.90
23534;DHT22;11944;50.796;4.322;2022-10-16T10:29:28;19.40;99.90
23534;DHT22;11944;50.796;4.322;2022-10-16T10:32:07;19.50;99.90
23534;DHT22;11944;50.796;4.322;2022-10-16T10:34:44;19.00;99.90
23534;DHT22;11944;50.796;4.322;2022-10-16T10:40:45;18.60;99.90
23534;DHT22;11944;50.796;4.322;2022-10-16T10:42:44;18.90;99.90
23534;DHT22;11944;50.796;4.322;2022-10-16T10:50:54;18.90;99.90
23534;DHT22;11944;50.796;4.322;2022-10-16T10:53:51;18.80;99.90
23534;DHT22;11944;50.796;4.322;2022-10-16T10:59:00;19.00;99.90
23534;DHT22;11944;50.796;4.322;2022-10-16T11:01:50;18.90;99.90
23534;DHT22;11944;50.796;4.322;2022-10-16T11:07:16;19.00;99.90
23534;DHT22;11944;50.796;4.322;2022-10-16T11:09:54;19.10;99.90
23534;DHT22;11944;50.796;4.322;2022-10-16T11:12:38;19.10;99.90
23534;DHT22;11944;50.796;4.322;2022-10-16T11:15:01;19.10;99.90
23534;DHT22;11944;50.796;4.322;2022-10-16T11:17:42;19.10;99.90
23534;DHT22;11944;50.796;4.322;2022-10-16T11:20:20;19.20;99.90
23534;DHT22;11944;50.796;4.322;2022-10-16T11:25:40;19.00;99.90
23534;DHT22;11944;50.796;4.322;2022-10-16T11:28:31;18.70;99.90
23534;DHT22;11944;50.796;4.322;2022-10-16T11:31:10;18.70;99.90
23534;DHT22;11944;50.796;4.322;2022-10-16T11:33:39;18.80;99.90
23534;DHT22;11944;50.796;4.322;2022-10-16T11:36:36;19.20;99.90
23534;DHT22;11944;50.796;4.322;2022-10-16T11:39:27;19.00;99.90
23534;DHT22;11944;50.796;4.322;2022-10-16T11:45:07;19.10;99.90
23534;DHT22;11944;50.796;4.322;2022-10-16T11:49:57;19.00;99.90
23534;DHT22;11944;50.796;4.322;2022-10-16T11:52:33;19.10;99.90
23534;DHT22;11944;50.796;4.322;2022-10-16T11:55:20;19.30;99.90
23534;DHT22;11944;50.796;4.322;2022-10-16T11:57:57;19.40;99.90
23534;DHT22;11944;50.796;4.322;2022-10-16T12:00:34;19.70;99.90
23534;DHT22;11944;50.796;4.322;2022-10-16T12:03:26;20.00;99.90
23534;DHT22;11944;50.796;4.322;2022-10-16T12:06:13;19.80;99.90
23534;DHT22;11944;50.796;4.322;2022-10-16T12:08:42;19.80;99.90
23534;DHT22;11944;50.796;4.322;2022-10-16T12:16:54;20.30;99.90
23534;DHT22;11944;50.796;4.322;2022-10-16T12:19:23;20.40;99.90
23534;DHT22;11944;50.796;4.322;2022-10-16T12:21:52;19.80;99.90
23534;DHT22;11944;50.796;4.322;2022-10-16T12:24:42;19.80;99.90
23534;DHT22;11944;50.796;4.322;2022-10-16T12:27:30;19.90;99.90
23534;DHT22;11944;50.796;4.322;2022-10-16T12:30:00;20.20;99.90
23534;DHT22;11944;50.796;4.322;2022-10-16T12:32:38;20.10;99.90
23534;DHT22;11944;50.796;4.322;2022-10-16T12:35:18;20.30;99.90
23534;DHT22;11944;50.796;4.322;2022-10-16T12:37:47;20.30;99.90
23534;DHT22;11944;50.796;4.322;2022-10-16T12:40:26;20.50;99.90
23534;DHT22;11944;50.796;4.322;2022-10-16T12:42:54;20.20;99.90
23534;DHT22;11944;50.796;4.322;2022-10-16T12:45:33;20.40;99.90
23534;DHT22;11944;50.796;4.322;2022-10-16T12:48:04;20.50;99.90
23534;DHT22;11944;50.796;4.322;2022-10-16T12:50:37;20.40;99.90
23534;DHT22;11944;50.796;4.322;2022-10-16T12:53:17;20.60;99.90
23534;DHT22;11944;50.796;4.322;2022-10-16T12:58:27;20.50;99.90
23534;DHT22;11944;50.796;4.322;2022-10-16T13:01:03;20.20;99.90
23534;DHT22;11944;50.796;4.322;2022-10-16T13:03:50;20.00;99.90
23534;DHT22;11944;50.796;4.322;2022-10-16T13:12:37;19.70;99.90
23534;DHT22;11944;50.796;4.322;2022-10-16T13:18:01;20.20;99.90
23534;DHT22;11944;50.796;4.322;2022-10-16T13:23:42;20.50;99.90
23534;DHT22;11944;50.796;4.322;2022-10-16T13:28:50;20.50;99.90
23534;DHT22;11944;50.796;4.322;2022-10-16T13:31:23;20.60;99.90
23534;DHT22;11944;50.796;4.322;2022-10-16T13:33:54;20.70;99.90
23534;DHT22;11944;50.796;4.322;2022-10-16T13:36:22;20.90;99.90
23534;DHT22;11944;50.796;4.322;2022-10-16T13:41:30;20.40;99.90
23534;DHT22;11944;50.796;4.322;2022-10-16T13:43:57;20.30;99.90
23534;DHT22;11944;50.796;4.322;2022-10-16T13:46:25;20.20;99.90
23534;DHT22;11944;50.796;4.322;2022-10-16T13:49:01;19.80;99.90
23534;DHT22;11944;50.796;4.322;2022-10-16T13:51:30;19.80;99.90
23534;DHT22;11944;50.796;4.322;2022-10-16T13:53:58;19.50;99.90
23534;DHT22;11944;50.796;4.322;2022-10-16T13:56:28;19.40;99.90
23534;DHT22;11944;50.796;4.322;2022-10-16T13:59:22;19.50;99.90
23534;DHT22;11944;50.796;4.322;2022-10-16T14:01:43;19.70;99.90
23534;DHT22;11944;50.796;4.322;2022-10-16T14:04:12;20.00;99.90
23534;DHT22;11944;50.796;4.322;2022-10-16T14:06:44;19.90;99.90
23534;DHT22;11944;50.796;4.322;2022-10-16T14:09:33;19.80;99.90
23534;DHT22;11944;50.796;4.322;2022-10-16T14:12:00;19.80;99.90
23534;DHT22;11944;50.796;4.322;2022-10-16T14:14:34;19.80;99.90
23534;DHT22;11944;50.796;4.322;2022-10-16T14:16:58;19.80;99.90
23534;DHT22;11944;50.796;4.322;2022-10-16T14:19:28;19.90;99.90
23534;DHT22;11944;50.796;4.322;2022-10-16T14:21:57;20.00;99.90
23534;DHT22;11944;50.796;4.322;2022-10-16T14:24:33;19.90;99.90
23534;DHT22;11944;50.796;4.322;2022-10-16T14:27:02;20.10;99.90
23534;DHT22;11944;50.796;4.322;2022-10-16T14:29:30;20.20;99.90
23534;DHT22;11944;50.796;4.322;2022-10-16T14:32:04;19.80;99.90
23534;DHT22;11944;50.796;4.322;2022-10-16T14:34:34;19.60;99.90
23534;DHT22;11944;50.796;4.322;2022-10-16T14:37:37;19.50;99.90
23534;DHT22;11944;50.796;4.322;2022-10-16T14:39:39;19.50;99.90
23534;DHT22;11944;50.796;4.322;2022-10-16T14:42:18;19.50;99.90
23534;DHT22;11944;50.796;4.322;2022-10-16T14:44:46;19.30;99.90
23534;DHT22;11944;50.796;4.322;2022-10-16T14:47:18;19.30;99.90
23534;DHT22;11944;50.796;4.322;2022-10-16T14:49:48;19.60;99.90
23534;DHT22;11944;50.796;4.322;2022-10-16T14:52:15;19.60;99.90
23534;DHT22;11944;50.796;4.322;2022-10-16T14:54:43;19.80;99.90
23534;DHT22;11944;50.796;4.322;2022-10-16T14:57:19;19.80;99.90
23534;DHT22;11944;50.796;4.322;2022-10-16T14:59:49;19.80;99.90
23534;DHT22;11944;50.796;4.322;2022-10-16T15:04:51;19.80;99.90
23534;DHT22;11944;50.796;4.322;2022-10-16T15:07:19;19.70;99.90
23534;DHT22;11944;50.796;4.322;2022-10-16T15:09:47;19.80;99.90
23534;DHT22;11944;50.796;4.322;2022-10-16T15:12:15;19.70;99.90
23534;DHT22;11944;50.796;4.322;2022-10-16T15:14:43;19.60;99.90
23534;DHT22;11944;50.796;4.322;2022-10-16T15:17:11;19.30;99.90
23534;DHT22;11944;50.796;4.322;2022-10-16T15:19:38;19.20;99.90
23534;DHT22;11944;50.796;4.322;2022-10-16T15:22:06;19.10;99.90
23534;DHT22;11944;50.796;4.322;2022-10-16T15:24:34;19.10;99.90
23534;DHT22;11944;50.796;4.322;2022-10-16T15:27:01;19.30;99.90
23534;DHT22;11944;50.796;4.322;2022-10-16T15:29:29;19.40;99.90
23534;DHT22;11944;50.796;4.322;2022-10-16T15:32:16;19.40;99.90
23534;DHT22;11944;50.796;4.322;2022-10-16T15:34:44;19.30;99.90
23534;DHT22;11944;50.796;4.322;2022-10-16T15:37:11;19.20;99.90
23534;DHT22;11944;50.796;4.322;2022-10-16T15:39:40;19.00;99.90
23534;DHT22;11944;50.796;4.322;2022-10-16T15:42:07;18.80;99.90
23534;DHT22;11944;50.796;4.322;2022-10-16T15:44:35;18.60;99.90
23534;DHT22;11944;50.796;4.322;2022-10-16T15:47:02;18.60;99.90
23534;DHT22;11944;50.796;4.322;2022-10-16T15:49:30;18.50;99.90
23534;DHT22;11944;50.796;4.322;2022-10-16T15:51:57;18.50;99.90
23534;DHT22;11944;50.796;4.322;2022-10-16T15:54:25;18.40;99.90
23534;DHT22;11944;50.796;4.322;2022-10-16T15:56:57;18.40;99.90
23534;DHT22;11944;50.796;4.322;2022-10-16T15:59:21;18.30;99.90
23534;DHT22;11944;50.796;4.322;2022-10-16T16:01:49;18.40;99.90
23534;DHT22;11944;50.796;4.322;2022-10-16T16:04:16;18.20;99.90
23534;DHT22;11944;50.796;4.322;2022-10-16T16:06:44;18.10;99.90
23534;DHT22;11944;50.796;4.322;2022-10-16T16:09:13;18.10;99.90
23534;DHT22;11944;50.796;4.322;2022-10-16T16:11:41;18.00;99.90
23534;DHT22;11944;50.796;4.322;2022-10-16T16:14:10;18.00;99.90
23534;DHT22;11944;50.796;4.322;2022-10-16T16:16:39;18.00;99.90
23534;DHT22;11944;50.796;4.322;2022-10-16T16:19:09;18.00;99.90
23534;DHT22;11944;50.796;4.322;2022-10-16T16:21:36;18.00;99.90
23534;DHT22;11944;50.796;4.322;2022-10-16T16:24:04;18.00;99.90
23534;DHT22;11944;50.796;4.322;2022-10-16T16:26:34;17.80;99.90
23534;DHT22;11944;50.796;4.322;2022-10-16T16:29:03;17.80;99.90
23534;DHT22;11944;50.796;4.322;2022-10-16T16:31:32;17.80;99.90
23534;DHT22;11944;50.796;4.322;2022-10-16T16:34:01;17.80;99.90
23534;DHT22;11944;50.796;4.322;2022-10-16T16:36:29;17.80;99.90
23534;DHT22;11944;50.796;4.322;2022-10-16T16:39:03;17.70;99.90
23534;DHT22;11944;50.796;4.322;2022-10-16T16:41:31;17.70;99.90
23534;DHT22;11944;50.796;4.322;2022-10-16T16:44:04;17.80;99.90
23534;DHT22;11944;50.796;4.322;2022-10-16T16:46:33;17.80;99.90
23534;DHT22;11944;50.796;4.322;2022-10-16T16:49:01;17.90;99.90
23534;DHT22;11944;50.796;4.322;2022-10-16T16:51:29;18.00;99.90
23534;DHT22;11944;50.796;4.322;2022-10-16T16:53:57;17.90;99.90
23534;DHT22;11944;50.796;4.322;2022-10-16T16:56:25;17.90;99.90
23534;DHT22;11944;50.796;4.322;2022-10-16T16:58:54;17.80;99.90